Torreon, Mexico

12:35 AM CDT on October 23, 2014 (GMT -0500)
Torreon International | Change Station
CLOSE
Current Station
Airport
Location: Torreon,
Elevation: 3688 ft
Nearby Weather Stations

Elev 3688 ft 25.53 °N, 103.45 °W | Updated 48 minutes ago

Scattered Clouds
Scattered Clouds
68 °F
Feels Like 68 °F
N
6
Wind Variable Wind from NW

Today
High -- | Low -- °F
--% Chance of Precip.
Yesterday
High -- | Low -- °F
Precip. -- in
7:56 AM 7:19 PM
Waning Crescent, 0% visible
Pressure 30.12 in
Visibility 10.0 miles
Clouds Scattered Clouds 3000 ft
Scattered Clouds 10000 ft
Dew Point 61 °F
Humidity 78%
Rainfall 0.00 in
Snow Depth Not available.
UV 0 out of 12
Pollen Not available.
Air Quality Not available.
Flu Activity Not available.
METAR MMTC 230447Z 32005KT 10SM SCT030 SCT100 20/16 A3012 RMK 8/570 HZY ISOL CI

More Conditions Fewer Conditions

Pressure 30.12 in
Visibility 10.0 miles
Clouds Scattered Clouds 3000 ft
Scattered Clouds 10000 ft
Dew Point 61 °F
Humidity 78%
Rainfall 0.00 in
Snow Depth Not available.
UV 0 out of 12
Pollen Not available.
Air Quality Not available.
Flu Activity Not available.
METAR MMTC 230447Z 32005KT 10SM SCT030 SCT100 20/16 A3012 RMK 8/570 HZY ISOL CI

More Conditions Fewer Conditions

10-Day Weather Forecast

Almanac

Astronomy

Oct. 23, 2014 Rise Set
Actual Time 7:56 AM CDT 7:19 PM CDT
Civil Twilight 7:33 AM CDT 7:42 PM CDT
Nautical Twilight 7:06 AM CDT 8:09 PM CDT
Astronomical Twilight 6:39 AM CDT 8:36 PM CDT
Moon 7:40 AM CDT 7:22 PM CDT
Length of Visible Light 12h 09m
Length of Day
11h 22m
Tomorrow will be 1m 24s shorter.
Waning Crescent, 0% of the Moon is Illuminated
Today
Waning Crescent
Oct 23
New
Oct 30
First Quarter
Nov 6
Full
Nov 14
Last Quarter

Yesterday's Extremes

Country Highs Country Lows

Community

WunderPhotos

Upload Photos

1,764,184 photos uploaded!

Nearby

Snow Depth

Not available.

Earthquake Activity

City Distance Mag. Time & Date
No recent earthquake activity has been reported nearby.
Minimum magnitude displayed is 2.5.

Coastal Water Temperatures

Place Temperature
No Stations Reporting

Nearby Weather Stations